Nearby METAR Reports

 

KDLS - The Dalles, Oregon, USA
Distance from station: NNE 2mi, 3km
Updated: Tue, 28-Sep-2021 12:53am PDT
Mostly cloudy
Mostly cloudy
 Wind from SSW
Wind: SSW 3 mph , 6 km/h
Temperature: 54°F , 12°C
Dew Point: 45°F , 7°C
Humidity: 72%
Barometer: 29.94 inHg , 1013.9 hPa
Clouds: Mostly cloudy
Visibility: 10 miles , 16 km
Cloud details: Mostly cloudy 6000 ft
Mostly cloudy 7000 ft
2021/09/28 07:53 KDLS 280753Z AUTO 21003KT 10SM BKN060 BKN070 12/07 A2994 RMK AO2 SLP140 T01220072 401890117
KTTD - Troutdale, Oregon, USA
Distance from station: W 60mi, 96km
Updated: Tue, 28-Sep-2021 12:53am PDT
Light rain, Mist, Overcast
Light rain, Mist, Overcast
 Wind from SW
Wind: SW 3 mph , 6 km/h
Temperature: 55°F , 13°C
Dew Point: 52°F , 11°C
Humidity: 88%
Barometer: 29.97 inHg , 1014.9 hPa
Summary: Light rain, Mist
Clouds: Overcast
Visibility: 4 miles , 6 km
Cloud details: Few Clouds 1900 ft
Partly cloudy 2900 ft
Overcast 4300 ft
2021/09/28 07:53 KTTD 280753Z AUTO 22003KT 4SM -RA BR FEW019 SCT029 OVC043 13/11 A2997 RMK AO2 RAB33 SLP149 P0007 T01280106 401890111
 
KPDX - Portland, Oregon, USA
Distance from station: W 69mi, 111km
Updated: Tue, 28-Sep-2021 12:53am PDT
Light rain, Overcast
Light rain, Overcast
 Wind from S
Wind: S 7 mph , 11 km/h
Temperature: 55°F , 13°C
Dew Point: 52°F , 11°C
Humidity: 88%
Barometer: 29.97 inHg , 1014.9 hPa
Summary: Light rain
Clouds: Overcast
Visibility: 10 miles , 16 km
Cloud details: Few Clouds 2000 ft
Overcast 6500 ft
2021/09/28 07:53 KPDX 280753Z 18006KT 10SM -RA FEW020 OVC065 13/11 A2997 RMK AO2 RAB04 SLP147 P0006 T01280106 401830128
KVUO - Vancouver, Washington, USA
Distance from station: W 71mi, 114km
Updated: Tue, 28-Sep-2021 12:53am PDT
Light rain, Overcast
Light rain, Overcast
 Wind from varies
Wind: varies 3 mph , 6 km/h
Temperature: 55°F , 13°C
Dew Point: 52°F , 11°C
Humidity: 88%
Barometer: 29.96 inHg , 1014.6 hPa
Summary: Light rain
Clouds: Overcast
Visibility: 10 miles , 16 km
Cloud details: Overcast 7000 ft
2021/09/28 07:53 KVUO 280753Z AUTO VRB03KT 10SM -RA OVC070 13/11 A2996 RMK AO2 RAB05 SLP146 P0005 T01280111 401830128
 
KYKM - Yakima, Washington, USA
Distance from station: NNE 74mi, 120km
Updated: Tue, 28-Sep-2021 12:53am PDT
Clear
Clear
 Wind from calm
Wind: Calm
Temperature: 48°F , 9°C
Barometer: 29.88 inHg , 1011.9 hPa
Clouds: Clear
Visibility: 10 miles , 16 km
2021/09/28 07:53 KYKM 280753Z AUTO 00000KT 10SM CLR 09/ A2988 RMK AO2 SLP117 T0094 401940089 $
KUAO - Aurora, Oregon, USA
Distance from station: WSW 80mi, 129km
Updated: Tue, 28-Sep-2021 12:53am PDT
Overcast
Overcast
 Wind from S
Wind: S 12 mph , 19 km/h
Temperature: 54°F , 12°C
Dew Point: 52°F , 11°C
Humidity: 94%
Barometer: 29.99 inHg , 1015.6 hPa
Clouds: Overcast
Cloud details: Partly cloudy 4500 ft
Overcast 6000 ft
2021/09/28 07:53 KUAO 280753Z AUTO 19010KT SCT045 OVC060 12/11 A2999 RMK AO2 RAB05E49 SLP155 P0010 T01220106 401780117 $
 
KSPB - Scappoose, Oregon, USA
Distance from station: W 82mi, 132km
Updated: Tue, 28-Sep-2021 12:53am PDT
Mostly cloudy
Mostly cloudy
 Wind from S
Wind: S 5 mph , 7 km/h
Temperature: 54°F , 12°C
Dew Point: 52°F , 11°C
Humidity: 94%
Barometer: 29.95 inHg , 1014.2 hPa
Clouds: Mostly cloudy
Visibility: 10 miles , 16 km
Cloud details: Few Clouds 1800 ft
Mostly cloudy 9500 ft
Mostly cloudy 11000 ft
2021/09/28 07:53 KSPB 280753Z AUTO 17004KT 10SM FEW018 BKN095 BKN110 12/11 A2995 RMK AO2 RAE31 SLP141 P0001 T01220106 401830100
KHIO - Hillsboro/Portld, Oregon, USA
Distance from station: W 85mi, 137km
Updated: Tue, 28-Sep-2021 12:53am PDT
Light rain, Overcast
Light rain, Overcast
 Wind from S
Wind: S 8 mph , 13 km/h
Temperature: 54°F , 12°C
Dew Point: 52°F , 11°C
Humidity: 94%
Barometer: 29.96 inHg , 1014.6 hPa
Summary: Light rain
Clouds: Overcast
Visibility: 10 miles , 16 km
Cloud details: Overcast 7000 ft
2021/09/28 07:53 KHIO 280753Z AUTO 18007KT 10SM -RA OVC070 12/11 A2996 RMK AO2 SLP145 P0004 T01170111 401720106
 
KKLS - Kelso Longveiw, Washington, USA
Distance from station: WNW 90mi, 145km
Updated: Tue, 28-Sep-2021 12:56am PDT
Light rain, Overcast
Light rain, Overcast
 Wind from SSE
Wind: SSE 6 mph , 9 km/h
Temperature: 54°F , 12°C
Dew Point: 52°F , 11°C
Humidity: 94%
Barometer: 29.95 inHg , 1014.2 hPa
Summary: Light rain
Clouds: Overcast
Visibility: 10 miles , 16 km
Cloud details: Mostly cloudy 800 ft
Overcast 5000 ft
2021/09/28 07:56 KKLS 280756Z AUTO 15005KT 10SM -RA BKN008 OVC050 12/11 A2995 RMK AO2 CIG 006V013 SLP145 P0006 T01220111 401780117
KRDM - Redmond, Oregon, USA
Distance from station: S 93mi, 149km
Updated: Tue, 28-Sep-2021 12:56am PDT
Overcast
Overcast
 Wind from calm
Wind: Calm
Temperature: 46°F , 8°C
Dew Point: 39°F , 4°C
Humidity: 76%
Barometer: 29.99 inHg , 1015.6 hPa
Clouds: Overcast
Visibility: 10 miles , 16 km
Cloud details: Partly cloudy 4700 ft
Mostly cloudy 5500 ft
Overcast 7000 ft
2021/09/28 07:56 KRDM 280756Z AUTO 00000KT 10SM SCT047 BKN055 OVC070 08/04 A2999 RMK AO2 SLP147 T00780039 402280078
 
KHRI - Hermiston, Oregon, USA
Distance from station: E 94mi, 151km
Updated: Tue, 28-Sep-2021 12:53am PDT
Clear
Clear
 Wind from SSW
Wind: SSW 8 mph , 13 km/h
Temperature: 55°F , 13°C
Dew Point: 48°F , 9°C
Humidity: 77%
Barometer: 29.90 inHg , 1012.5 hPa
Clouds: Clear
Visibility: 10 miles , 16 km
2021/09/28 07:53 KHRI 280753Z AUTO 21007KT 10SM CLR 13/09 A2990 RMK AO2 SLP123 T01280094 402560128
KMMV - Mcminnville, Oregon, USA
Distance from station: WSW 98mi, 158km
Updated: Tue, 28-Sep-2021 12:53am PDT
Light rain, Mist, Overcast
Light rain, Mist, Overcast
 Wind from SSW
Wind: SSW 9 mph , 15 km/h
Temperature: 54°F , 12°C
Dew Point: 52°F , 11°C
Humidity: 94%
Barometer: 29.98 inHg , 1015.2 hPa
Summary: Light rain, Mist
Clouds: Overcast
Visibility: 6 miles , 10 km
Cloud details: Partly cloudy 3900 ft
Mostly cloudy 4700 ft
Overcast 6000 ft
2021/09/28 07:53 KMMV 280753Z AUTO 20008KT 6SM -RA BR SCT039 BKN047 OVC060 12/11 A2998 RMK AO2 SLP151 P0004 T01220106 401890111
 
KSLE - Salem, Oregon, USA
Distance from station: WSW 100mi, 161km
Updated: Tue, 28-Sep-2021 12:56am PDT
Light rain, Overcast
Light rain, Overcast
 Wind from S
Wind: S 15 mph , 24 km/h
Temperature: 54°F , 12°C
Dew Point: 50°F , 10°C
Humidity: 88%
Barometer: 29.99 inHg , 1015.6 hPa
Summary: Light rain
Clouds: Overcast
Visibility: 9 miles , 14 km
Cloud details: Few Clouds 3100 ft
Mostly cloudy 5000 ft
Overcast 10000 ft
2021/09/28 07:56 KSLE 280756Z AUTO 18013KT 9SM -RA FEW031 BKN050 OVC100 12/10 A2999 RMK AO2 RAB18 SLP156 P0005 T01170100 401890117
KBDN - Bend, Oregon, USA
Distance from station: S 103mi, 166km
Updated: Tue, 28-Sep-2021 12:55am PDT
Overcast
Overcast
 Wind from SW
Wind: SW 7 mph , 11 km/h
Temperature: 45°F , 7°C
Wind Chill: 41°F , 5°C
Dew Point: 39°F , 4°C
Humidity: 81%
Barometer: 30.00 inHg , 1015.9 hPa
Clouds: Overcast
Visibility: 10 miles , 16 km
Cloud details: Mostly cloudy 2500 ft
Overcast 4400 ft
2021/09/28 07:55 KBDN 280755Z AUTO 23006KT 10SM BKN025 OVC044 07/04 A3000 RMK AO2
 
KELN - Ellensburg, Washington, USA
Distance from station: NNE 104mi, 168km
Updated: Tue, 28-Sep-2021 12:53am PDT
Clear
Clear
 Wind from NW
Wind: NW 7 mph , 11 km/h
Temperature: 48°F , 9°C
Wind Chill: 45°F , 7°C
Dew Point: 39°F , 4°C
Humidity: 71%
Barometer: 29.87 inHg , 1011.5 hPa
Clouds: Clear
Visibility: 10 miles , 16 km
2021/09/28 07:53 KELN 280753Z AUTO 31006KT 10SM CLR 09/04 A2987 RMK AO2 SLP114 T00890044 401830089
KPSC - Pasco, Washington, USA
Distance from station: ENE 110mi, 177km
Updated: Tue, 28-Sep-2021 12:53am PDT
Clear
Clear
 Wind from SW
Wind: SW 13 mph , 20 km/h
Temperature: 57°F , 14°C
Dew Point: 48°F , 9°C
Humidity: 72%
Barometer: 29.86 inHg , 1011.2 hPa
Clouds: Clear
Visibility: 10 miles , 16 km
2021/09/28 07:53 KPSC 280753Z AUTO 23011KT 10SM CLR 14/09 A2986 RMK AO2 PRESFR SLP111 T01440094 402670139
 
KPDT - Pendleton, Oregon, USA
Distance from station: E 114mi, 183km
Updated: Tue, 28-Sep-2021 12:53am PDT
Mostly cloudy
Mostly cloudy
 Wind from S
Wind: S 7 mph , 11 km/h
Temperature: 52°F , 11°C
Dew Point: 48°F , 9°C
Humidity: 88%
Barometer: 29.90 inHg , 1012.5 hPa
Clouds: Mostly cloudy
Visibility: 10 miles , 16 km
Cloud details: Partly cloudy 6500 ft
Mostly cloudy 11000 ft
2021/09/28 07:53 KPDT 280753Z AUTO 18006KT 10SM SCT065 BKN110 11/09 A2990 RMK AO2 SLP116 T01060089 402560106
KCLS - Chehalis Central, Washington, USA
Distance from station: NW 115mi, 184km
Updated: Tue, 28-Sep-2021 12:55am PDT
Overcast
Overcast
 Wind from S
Wind: S 8 mph , 13 km/h
Temperature: 52°F , 11°C
Dew Point: 52°F , 11°C
Humidity: 100%
Barometer: 29.92 inHg , 1013.2 hPa
Clouds: Overcast
Visibility: 10 miles , 16 km
Cloud details: Few Clouds 3600 ft
Partly cloudy 4400 ft
Overcast 7000 ft
2021/09/28 07:55 KCLS 280755Z AUTO 18007KT 10SM FEW036 SCT044 OVC070 11/11 A2992 RMK AO2
 
KPLU - Puyallup/Thun, Washington, USA
Distance from station: NNW 117mi, 188km
Updated: Tue, 28-Sep-2021 12:55am PDT
Mostly cloudy
Mostly cloudy
 Wind from S
Wind: S 8 mph , 13 km/h
Temperature: 52°F , 11°C
Dew Point: 50°F , 10°C
Humidity: 94%
Barometer: 29.90 inHg , 1012.5 hPa
Clouds: Mostly cloudy
Visibility: 10 miles , 16 km
Cloud details: Few Clouds 500 ft
Partly cloudy 3600 ft
Mostly cloudy 5000 ft
2021/09/28 07:55 KPLU 280755Z AUTO 18007KT 10SM FEW005 SCT036 BKN050 11/10 A2990 RMK AO2
KCVO - Corvallis Muni A, Oregon, USA
Distance from station: WNW 167mi, 269km
Updated: Tue, 28-Sep-2021 12:56am PDT
Mostly cloudy
Mostly cloudy
 Wind from SSE
Wind: SSE 9 mph , 15 km/h
Temperature: 50°F , 10°C
Wind Chill: 46°F , 8°C
Dew Point: 48°F , 9°C
Humidity: 94%
Barometer: 30.03 inHg , 1016.9 hPa
Clouds: Mostly cloudy
Visibility: 10 miles , 16 km
Cloud details: Mostly cloudy 7000 ft
2021/09/28 07:56 KCVO 280756Z AUTO 16008KT 10SM BKN070 10/09 A3003 RMK AO2 RAE04 SLP171 P0000 T01000094 401720100
 
KEUG - Eugene, Oregon, USA
Distance from station: W 193mi, 310km
Updated: Tue, 28-Sep-2021 12:54am PDT
Light rain, Overcast
Light rain, Overcast
 Wind from S
Wind: S 9 mph , 15 km/h
Temperature: 52°F , 11°C
Dew Point: 48°F , 9°C
Humidity: 88%
Barometer: 30.05 inHg , 1017.6 hPa
Summary: Light rain
Clouds: Overcast
Visibility: 10 miles , 16 km
Cloud details: Few Clouds 3000 ft
Overcast 6000 ft
2021/09/28 07:54 KEUG 280754Z AUTO 17008KT 10SM -RA FEW030 OVC060 11/09 A3005 RMK AO2 RAB43 SLP176 P0001 T01110089 401830106
KRBG - Roseburg, Oregon, USA
Distance from station: WSW 196mi, 315km
Updated: Tue, 28-Sep-2021 12:53am PDT
Few Clouds
Few Clouds
 Wind from SSE
Wind: SSE 6 mph , 9 km/h
Temperature: 52°F , 11°C
Dew Point: 48°F , 9°C
Humidity: 88%
Barometer: 30.09 inHg , 1019 hPa
Clouds: Few Clouds
Visibility: 10 miles , 16 km
Cloud details: Few Clouds 12000 ft
2021/09/28 07:53 KRBG 280753Z AUTO 15005KT 10SM FEW120 11/09 A3009 RMK AO2 SLP188 T01060094 402000106
 
KLKV - Lakeview, Oregon, USA
Distance from station: SSE 239mi, 385km
Updated: Tue, 28-Sep-2021 1:00am PDT
Light rain, Partly cloudy
Light rain, Partly cloudy
 Wind from NE
Wind: NE 6 mph , 9 km/h
Temperature: 39°F , 4°C
Wind Chill: 35°F , 2°C
Dew Point: 37°F , 3°C
Humidity: 93%
Barometer: 30.03 inHg , 1016.9 hPa
Summary: Light rain
Clouds: Partly cloudy
Visibility: 10 miles , 16 km
Cloud details: Few Clouds 1800 ft
Partly cloudy 2400 ft
Partly cloudy 3100 ft
2021/09/28 08:00 KLKV 280800Z AUTO 05005KT 10SM -RA FEW018 SCT024 SCT031 04/03 A3003 RMK AO2 P0000
KMFR - Medford, Oregon, USA
Distance from station: WSW 241mi, 388km
Updated: Tue, 28-Sep-2021 12:53am PDT
Mostly cloudy
Mostly cloudy
 Wind from S
Wind: S 3 mph , 6 km/h
Temperature: 48°F , 9°C
Dew Point: 45°F , 7°C
Humidity: 87%
Barometer: 30.10 inHg , 1019.3 hPa
Clouds: Mostly cloudy
Visibility: 10 miles , 16 km
Cloud details: Mostly cloudy 6500 ft
2021/09/28 07:53 KMFR 280753Z AUTO 17003KT 10SM BKN065 09/07 A3010 RMK AO2 SLP192 T00940072 401780094
 
KBNO - Burns, Oregon, USA
Distance from station: ESE 249mi, 280km
Updated: Tue, 28-Sep-2021 12:53am PDT
Light rain, Overcast
Light rain, Overcast
 Wind from W
Wind: W 9 mph , 15 km/h
Temperature: 45°F , 7°C
Wind Chill: 40°F , 4°C
Dew Point: 39°F , 4°C
Humidity: 81%
Barometer: 29.97 inHg , 1014.9 hPa
Summary: Light rain
Clouds: Overcast
Visibility: 10 miles , 16 km
Cloud details: Overcast 3200 ft
2021/09/28 07:53 KBNO 280753Z AUTO 27008KT 10SM -RA OVC032 07/04 A2997 RMK AO2 SLP123 P0003 T00670044 402670011
KLMT - Klamath Falls, Oregon, USA
Distance from station: SSW 266mi, 428km
Updated: Tue, 28-Sep-2021 12:53am PDT
Mostly cloudy
Mostly cloudy
 Wind from W
Wind: W 10 mph , 17 km/h
Temperature: 41°F , 5°C
Wind Chill: 35°F , 2°C
Dew Point: 36°F , 2°C
Humidity: 81%
Barometer: 30.06 inHg , 1017.9 hPa
Clouds: Mostly cloudy
Visibility: 10 miles , 16 km
Cloud details: Mostly cloudy 3300 ft
2021/09/28 07:53 KLMT 280753Z AUTO 26009KT 10SM BKN033 05/02 A3006 RMK AO2 SLP161 T00500017 402000050 $